sensor_id;sensor_type;location;lat;lon;timestamp;P1;durP1;ratioP1;P2;durP2;ratioP2
62588;SDS011;58504;48.770;9.148;2023-04-15T00:01:05;0.60;;;0.60;;
62588;SDS011;58504;48.770;9.148;2023-04-15T00:03:32;0.70;;;0.68;;
62588;SDS011;58504;48.770;9.148;2023-04-15T00:05:59;0.52;;;0.52;;
62588;SDS011;58504;48.770;9.148;2023-04-15T00:08:26;0.40;;;0.40;;
62588;SDS011;58504;48.770;9.148;2023-04-15T00:10:55;0.70;;;0.70;;
62588;SDS011;58504;48.770;9.148;2023-04-15T00:15:53;1.27;;;0.70;;
62588;SDS011;58504;48.770;9.148;2023-04-15T00:18:20;0.50;;;0.50;;
62588;SDS011;58504;48.770;9.148;2023-04-15T00:20:47;0.60;;;0.60;;
62588;SDS011;58504;48.770;9.148;2023-04-15T00:23:14;0.73;;;0.73;;
62588;SDS011;58504;48.770;9.148;2023-04-15T00:25:41;0.70;;;0.70;;
62588;SDS011;58504;48.770;9.148;2023-04-15T00:28:10;0.70;;;0.70;;
62588;SDS011;58504;48.770;9.148;2023-04-15T00:30:36;1.98;;;0.95;;
62588;SDS011;58504;48.770;9.148;2023-04-15T00:33:03;1.70;;;0.95;;
62588;SDS011;58504;48.770;9.148;2023-04-15T00:35:30;2.97;;;1.20;;
62588;SDS011;58504;48.770;9.148;2023-04-15T00:37:57;3.65;;;1.35;;
62588;SDS011;58504;48.770;9.148;2023-04-15T00:40:24;2.20;;;1.10;;
62588;SDS011;58504;48.770;9.148;2023-04-15T00:42:51;3.92;;;1.58;;
62588;SDS011;58504;48.770;9.148;2023-04-15T00:45:20;3.72;;;1.73;;
62588;SDS011;58504;48.770;9.148;2023-04-15T00:47:48;2.15;;;1.20;;
62588;SDS011;58504;48.770;9.148;2023-04-15T00:50:16;8.20;;;1.92;;
62588;SDS011;58504;48.770;9.148;2023-04-15T00:52:43;5.38;;;1.90;;
62588;SDS011;58504;48.770;9.148;2023-04-15T00:55:10;6.78;;;1.38;;
62588;SDS011;58504;48.770;9.148;2023-04-15T00:57:37;8.82;;;1.83;;
62588;SDS011;58504;48.770;9.148;2023-04-15T01:00:05;5.82;;;2.03;;
62588;SDS011;58504;48.770;9.148;2023-04-15T01:02:35;7.70;;;2.08;;
62588;SDS011;58504;48.770;9.148;2023-04-15T01:05:02;9.32;;;1.98;;
62588;SDS011;58504;48.770;9.148;2023-04-15T01:07:29;4.13;;;1.48;;
62588;SDS011;58504;48.770;9.148;2023-04-15T01:09:55;3.53;;;1.38;;
62588;SDS011;58504;48.770;9.148;2023-04-15T01:12:23;9.55;;;1.88;;
62588;SDS011;58504;48.770;9.148;2023-04-15T01:14:52;7.65;;;1.83;;
62588;SDS011;58504;48.770;9.148;2023-04-15T01:17:19;2.58;;;1.33;;
62588;SDS011;58504;48.770;9.148;2023-04-15T01:19:47;3.53;;;1.50;;
62588;SDS011;58504;48.770;9.148;2023-04-15T01:22:14;3.55;;;1.60;;
62588;SDS011;58504;48.770;9.148;2023-04-15T01:24:41;5.80;;;1.98;;
62588;SDS011;58504;48.770;9.148;2023-04-15T01:27:15;7.90;;;1.73;;
62588;SDS011;58504;48.770;9.148;2023-04-15T01:29:42;5.47;;;1.35;;
62588;SDS011;58504;48.770;9.148;2023-04-15T01:32:09;6.32;;;1.40;;
62588;SDS011;58504;48.770;9.148;2023-04-15T01:34:36;4.90;;;0.95;;
62588;SDS011;58504;48.770;9.148;2023-04-15T01:37:02;1.08;;;0.98;;
62588;SDS011;58504;48.770;9.148;2023-04-15T01:39:29;1.88;;;1.13;;
62588;SDS011;58504;48.770;9.148;2023-04-15T01:41:56;2.22;;;1.25;;
62588;SDS011;58504;48.770;9.148;2023-04-15T01:44:24;3.33;;;1.08;;
62588;SDS011;58504;48.770;9.148;2023-04-15T01:46:51;6.28;;;1.40;;
62588;SDS011;58504;48.770;9.148;2023-04-15T01:49:18;6.60;;;1.30;;
62588;SDS011;58504;48.770;9.148;2023-04-15T01:51:45;1.73;;;1.05;;
62588;SDS011;58504;48.770;9.148;2023-04-15T01:54:12;2.92;;;1.42;;
62588;SDS011;58504;48.770;9.148;2023-04-15T01:56:38;3.10;;;1.20;;
62588;SDS011;58504;48.770;9.148;2023-04-15T01:59:05;3.35;;;1.27;;
62588;SDS011;58504;48.770;9.148;2023-04-15T02:01:33;1.95;;;1.02;;
62588;SDS011;58504;48.770;9.148;2023-04-15T02:04:00;5.43;;;1.13;;
62588;SDS011;58504;48.770;9.148;2023-04-15T02:06:27;1.83;;;1.00;;
62588;SDS011;58504;48.770;9.148;2023-04-15T02:08:54;2.47;;;1.45;;
62588;SDS011;58504;48.770;9.148;2023-04-15T02:11:21;4.38;;;1.40;;
62588;SDS011;58504;48.770;9.148;2023-04-15T02:13:48;1.65;;;1.08;;
62588;SDS011;58504;48.770;9.148;2023-04-15T02:16:15;1.05;;;0.85;;
62588;SDS011;58504;48.770;9.148;2023-04-15T02:18:44;2.33;;;1.17;;
62588;SDS011;58504;48.770;9.148;2023-04-15T02:21:11;4.90;;;1.27;;
62588;SDS011;58504;48.770;9.148;2023-04-15T02:23:38;2.45;;;1.10;;
62588;SDS011;58504;48.770;9.148;2023-04-15T02:26:05;1.13;;;1.05;;
62588;SDS011;58504;48.770;9.148;2023-04-15T02:28:32;1.20;;;0.98;;
62588;SDS011;58504;48.770;9.148;2023-04-15T02:30:58;2.63;;;1.30;;
62588;SDS011;58504;48.770;9.148;2023-04-15T02:33:26;1.95;;;1.20;;
62588;SDS011;58504;48.770;9.148;2023-04-15T02:35:54;1.25;;;1.10;;
62588;SDS011;58504;48.770;9.148;2023-04-15T02:38:21;2.20;;;0.95;;
62588;SDS011;58504;48.770;9.148;2023-04-15T02:40:47;2.22;;;1.23;;
62588;SDS011;58504;48.770;9.148;2023-04-15T02:43:15;3.10;;;1.00;;
62588;SDS011;58504;48.770;9.148;2023-04-15T02:45:42;0.93;;;0.82;;
62588;SDS011;58504;48.770;9.148;2023-04-15T02:48:11;3.33;;;1.60;;
62588;SDS011;58504;48.770;9.148;2023-04-15T02:50:38;1.23;;;0.82;;
62588;SDS011;58504;48.770;9.148;2023-04-15T02:53:06;1.73;;;1.10;;
62588;SDS011;58504;48.770;9.148;2023-04-15T02:55:32;1.83;;;1.25;;
62588;SDS011;58504;48.770;9.148;2023-04-15T02:57:59;2.38;;;1.05;;
62588;SDS011;58504;48.770;9.148;2023-04-15T03:00:26;1.63;;;0.90;;
62588;SDS011;58504;48.770;9.148;2023-04-15T03:02:56;2.95;;;1.00;;
62588;SDS011;58504;48.770;9.148;2023-04-15T03:05:24;0.90;;;0.90;;
62588;SDS011;58504;48.770;9.148;2023-04-15T03:07:51;0.80;;;0.80;;
62588;SDS011;58504;48.770;9.148;2023-04-15T03:10:19;1.52;;;1.20;;
62588;SDS011;58504;48.770;9.148;2023-04-15T03:12:46;0.85;;;0.82;;
62588;SDS011;58504;48.770;9.148;2023-04-15T03:15:13;1.52;;;0.88;;
62588;SDS011;58504;48.770;9.148;2023-04-15T03:17:40;1.42;;;0.70;;
62588;SDS011;58504;48.770;9.148;2023-04-15T03:20:07;1.15;;;1.05;;
62588;SDS011;58504;48.770;9.148;2023-04-15T03:22:35;1.55;;;0.93;;
62588;SDS011;58504;48.770;9.148;2023-04-15T03:25:02;3.70;;;1.55;;
62588;SDS011;58504;48.770;9.148;2023-04-15T03:27:30;1.20;;;1.10;;
62588;SDS011;58504;48.770;9.148;2023-04-15T03:29:57;1.67;;;1.10;;
62588;SDS011;58504;48.770;9.148;2023-04-15T03:32:23;1.38;;;0.90;;
62588;SDS011;58504;48.770;9.148;2023-04-15T03:34:51;0.90;;;0.90;;
62588;SDS011;58504;48.770;9.148;2023-04-15T03:37:17;1.15;;;0.80;;
62588;SDS011;58504;48.770;9.148;2023-04-15T03:39:44;1.83;;;1.20;;
62588;SDS011;58504;48.770;9.148;2023-04-15T03:42:11;1.05;;;0.90;;
62588;SDS011;58504;48.770;9.148;2023-04-15T03:44:39;1.10;;;0.90;;
62588;SDS011;58504;48.770;9.148;2023-04-15T03:47:06;1.13;;;1.02;;
62588;SDS011;58504;48.770;9.148;2023-04-15T03:49:33;0.77;;;0.75;;
62588;SDS011;58504;48.770;9.148;2023-04-15T03:52:00;2.15;;;0.90;;
62588;SDS011;58504;48.770;9.148;2023-04-15T03:54:26;1.55;;;1.10;;
62588;SDS011;58504;48.770;9.148;2023-04-15T03:56:53;0.95;;;0.88;;
62588;SDS011;58504;48.770;9.148;2023-04-15T03:59:20;1.40;;;1.25;;
62588;SDS011;58504;48.770;9.148;2023-04-15T04:01:48;0.93;;;0.93;;
62588;SDS011;58504;48.770;9.148;2023-04-15T04:04:16;1.95;;;0.90;;
62588;SDS011;58504;48.770;9.148;2023-04-15T04:06:42;1.10;;;0.98;;
62588;SDS011;58504;48.770;9.148;2023-04-15T04:09:09;1.02;;;0.85;;
62588;SDS011;58504;48.770;9.148;2023-04-15T04:11:36;0.90;;;0.90;;
62588;SDS011;58504;48.770;9.148;2023-04-15T04:14:03;1.42;;;0.80;;
62588;SDS011;58504;48.770;9.148;2023-04-15T04:16:29;0.77;;;0.77;;
62588;SDS011;58504;48.770;9.148;2023-04-15T04:18:57;3.58;;;0.93;;
62588;SDS011;58504;48.770;9.148;2023-04-15T04:21:24;0.90;;;0.90;;
62588;SDS011;58504;48.770;9.148;2023-04-15T04:23:51;0.77;;;0.77;;
62588;SDS011;58504;48.770;9.148;2023-04-15T04:26:18;1.85;;;0.80;;
62588;SDS011;58504;48.770;9.148;2023-04-15T04:28:45;1.08;;;0.98;;
62588;SDS011;58504;48.770;9.148;2023-04-15T04:31:12;0.70;;;0.70;;
62588;SDS011;58504;48.770;9.148;2023-04-15T04:33:39;1.42;;;0.85;;
62588;SDS011;58504;48.770;9.148;2023-04-15T04:36:07;0.75;;;0.75;;
62588;SDS011;58504;48.770;9.148;2023-04-15T04:38:34;1.10;;;1.00;;
62588;SDS011;58504;48.770;9.148;2023-04-15T04:41:01;1.30;;;1.00;;
62588;SDS011;58504;48.770;9.148;2023-04-15T04:43:27;1.17;;;1.02;;
62588;SDS011;58504;48.770;9.148;2023-04-15T04:45:54;2.30;;;0.80;;
62588;SDS011;58504;48.770;9.148;2023-04-15T04:48:21;0.85;;;0.85;;
62588;SDS011;58504;48.770;9.148;2023-04-15T04:50:48;1.40;;;1.00;;
62588;SDS011;58504;48.770;9.148;2023-04-15T04:53:16;1.67;;;1.00;;
62588;SDS011;58504;48.770;9.148;2023-04-15T04:55:43;0.80;;;0.80;;
62588;SDS011;58504;48.770;9.148;2023-04-15T04:58:09;1.20;;;0.90;;
62588;SDS011;58504;48.770;9.148;2023-04-15T05:00:36;2.55;;;0.80;;
62588;SDS011;58504;48.770;9.148;2023-04-15T05:03:03;0.93;;;0.80;;
62588;SDS011;58504;48.770;9.148;2023-04-15T05:05:30;1.17;;;1.08;;
62588;SDS011;58504;48.770;9.148;2023-04-15T05:07:57;1.10;;;1.00;;
62588;SDS011;58504;48.770;9.148;2023-04-15T05:10:25;1.08;;;0.73;;
62588;SDS011;58504;48.770;9.148;2023-04-15T05:12:51;0.80;;;0.80;;
62588;SDS011;58504;48.770;9.148;2023-04-15T05:15:18;0.80;;;0.73;;
62588;SDS011;58504;48.770;9.148;2023-04-15T05:17:45;0.95;;;0.80;;
62588;SDS011;58504;48.770;9.148;2023-04-15T05:20:12;1.60;;;0.80;;
62588;SDS011;58504;48.770;9.148;2023-04-15T05:22:39;1.02;;;0.88;;
62588;SDS011;58504;48.770;9.148;2023-04-15T05:25:06;0.90;;;0.90;;
62588;SDS011;58504;48.770;9.148;2023-04-15T05:27:35;0.90;;;0.80;;
62588;SDS011;58504;48.770;9.148;2023-04-15T05:30:01;1.00;;;0.95;;
62588;SDS011;58504;48.770;9.148;2023-04-15T05:32:29;0.85;;;0.85;;
62588;SDS011;58504;48.770;9.148;2023-04-15T05:34:56;0.68;;;0.68;;
62588;SDS011;58504;48.770;9.148;2023-04-15T05:37:23;1.55;;;0.90;;
62588;SDS011;58504;48.770;9.148;2023-04-15T05:39:50;2.20;;;0.95;;
62588;SDS011;58504;48.770;9.148;2023-04-15T05:42:16;0.82;;;0.82;;
62588;SDS011;58504;48.770;9.148;2023-04-15T05:44:44;2.83;;;1.15;;
62588;SDS011;58504;48.770;9.148;2023-04-15T05:47:11;0.90;;;0.90;;
62588;SDS011;58504;48.770;9.148;2023-04-15T05:49:38;0.80;;;0.80;;
62588;SDS011;58504;48.770;9.148;2023-04-15T05:52:05;0.70;;;0.70;;
62588;SDS011;58504;48.770;9.148;2023-04-15T05:54:32;1.00;;;0.70;;
62588;SDS011;58504;48.770;9.148;2023-04-15T05:56:58;0.95;;;0.95;;
62588;SDS011;58504;48.770;9.148;2023-04-15T05:59:25;0.73;;;0.73;;
62588;SDS011;58504;48.770;9.148;2023-04-15T06:01:54;0.55;;;0.52;;
62588;SDS011;58504;48.770;9.148;2023-04-15T06:04:21;0.82;;;0.60;;
62588;SDS011;58504;48.770;9.148;2023-04-15T06:06:48;0.63;;;0.63;;
62588;SDS011;58504;48.770;9.148;2023-04-15T06:09:15;0.80;;;0.80;;
62588;SDS011;58504;48.770;9.148;2023-04-15T06:11:41;1.20;;;1.10;;
62588;SDS011;58504;48.770;9.148;2023-04-15T06:14:08;1.17;;;0.93;;
62588;SDS011;58504;48.770;9.148;2023-04-15T06:16:35;1.20;;;1.10;;
62588;SDS011;58504;48.770;9.148;2023-04-15T06:19:03;1.05;;;1.00;;
62588;SDS011;58504;48.770;9.148;2023-04-15T06:21:30;0.77;;;0.77;;
62588;SDS011;58504;48.770;9.148;2023-04-15T06:23:57;1.30;;;1.00;;
62588;SDS011;58504;48.770;9.148;2023-04-15T06:26:25;1.10;;;1.00;;
62588;SDS011;58504;48.770;9.148;2023-04-15T06:28:52;2.55;;;1.30;;
62588;SDS011;58504;48.770;9.148;2023-04-15T06:31:19;1.10;;;1.10;;
62588;SDS011;58504;48.770;9.148;2023-04-15T06:33:46;0.70;;;0.70;;
62588;SDS011;58504;48.770;9.148;2023-04-15T06:36:14;0.90;;;0.90;;
62588;SDS011;58504;48.770;9.148;2023-04-15T06:38:41;0.75;;;0.75;;
62588;SDS011;58504;48.770;9.148;2023-04-15T06:41:08;0.80;;;0.80;;
62588;SDS011;58504;48.770;9.148;2023-04-15T06:43:34;1.05;;;1.05;;
62588;SDS011;58504;48.770;9.148;2023-04-15T06:46:01;0.77;;;0.75;;
62588;SDS011;58504;48.770;9.148;2023-04-15T06:48:28;0.77;;;0.77;;
62588;SDS011;58504;48.770;9.148;2023-04-15T06:50:55;0.88;;;0.82;;
62588;SDS011;58504;48.770;9.148;2023-04-15T06:53:23;2.05;;;0.80;;
62588;SDS011;58504;48.770;9.148;2023-04-15T06:55:50;0.73;;;0.55;;
62588;SDS011;58504;48.770;9.148;2023-04-15T06:58:17;1.15;;;1.05;;
62588;SDS011;58504;48.770;9.148;2023-04-15T07:00:44;1.23;;;1.13;;
62588;SDS011;58504;48.770;9.148;2023-04-15T07:03:11;0.90;;;0.80;;
62588;SDS011;58504;48.770;9.148;2023-04-15T07:05:39;1.40;;;1.00;;
62588;SDS011;58504;48.770;9.148;2023-04-15T07:08:05;1.10;;;1.00;;
62588;SDS011;58504;48.770;9.148;2023-04-15T07:10:34;0.98;;;0.98;;
62588;SDS011;58504;48.770;9.148;2023-04-15T07:13:01;1.20;;;0.98;;
62588;SDS011;58504;48.770;9.148;2023-04-15T07:15:28;2.83;;;1.25;;
62588;SDS011;58504;48.770;9.148;2023-04-15T07:17:55;1.33;;;1.23;;
62588;SDS011;58504;48.770;9.148;2023-04-15T07:20:21;1.00;;;0.98;;
62588;SDS011;58504;48.770;9.148;2023-04-15T07:22:48;1.05;;;0.90;;
62588;SDS011;58504;48.770;9.148;2023-04-15T07:25:15;1.33;;;1.20;;
62588;SDS011;58504;48.770;9.148;2023-04-15T07:27:44;1.20;;;1.10;;
62588;SDS011;58504;48.770;9.148;2023-04-15T07:30:11;0.93;;;0.93;;
62588;SDS011;58504;48.770;9.148;2023-04-15T07:32:38;1.23;;;1.13;;
62588;SDS011;58504;48.770;9.148;2023-04-15T07:35:05;1.80;;;0.90;;
62588;SDS011;58504;48.770;9.148;2023-04-15T07:37:32;0.65;;;0.65;;
62588;SDS011;58504;48.770;9.148;2023-04-15T07:39:59;1.98;;;1.50;;
62588;SDS011;58504;48.770;9.148;2023-04-15T07:42:26;3.53;;;2.38;;
62588;SDS011;58504;48.770;9.148;2023-04-15T07:44:55;3.83;;;1.67;;
62588;SDS011;58504;48.770;9.148;2023-04-15T07:47:22;3.08;;;1.15;;
62588;SDS011;58504;48.770;9.148;2023-04-15T07:49:48;6.07;;;1.80;;
62588;SDS011;58504;48.770;9.148;2023-04-15T07:52:16;3.75;;;1.25;;
62588;SDS011;58504;48.770;9.148;2023-04-15T07:54:43;3.17;;;1.38;;
62588;SDS011;58504;48.770;9.148;2023-04-15T07:57:10;2.85;;;1.67;;
62588;SDS011;58504;48.770;9.148;2023-04-15T07:59:37;2.35;;;1.25;;
62588;SDS011;58504;48.770;9.148;2023-04-15T08:02:05;2.60;;;1.50;;
62588;SDS011;58504;48.770;9.148;2023-04-15T08:04:32;1.95;;;1.75;;
62588;SDS011;58504;48.770;9.148;2023-04-15T08:06:59;3.22;;;2.13;;
62588;SDS011;58504;48.770;9.148;2023-04-15T08:09:26;1.92;;;1.73;;
62588;SDS011;58504;48.770;9.148;2023-04-15T08:11:53;1.77;;;1.67;;
62588;SDS011;58504;48.770;9.148;2023-04-15T08:14:20;5.07;;;1.85;;
62588;SDS011;58504;48.770;9.148;2023-04-15T08:16:47;3.28;;;2.03;;
62588;SDS011;58504;48.770;9.148;2023-04-15T08:19:15;4.30;;;1.65;;
62588;SDS011;58504;48.770;9.148;2023-04-15T08:21:42;4.47;;;1.92;;
62588;SDS011;58504;48.770;9.148;2023-04-15T08:24:08;2.20;;;1.65;;
62588;SDS011;58504;48.770;9.148;2023-04-15T08:26:35;3.70;;;2.10;;
62588;SDS011;58504;48.770;9.148;2023-04-15T08:29:02;5.00;;;1.98;;
62588;SDS011;58504;48.770;9.148;2023-04-15T08:31:29;4.75;;;1.85;;
62588;SDS011;58504;48.770;9.148;2023-04-15T08:33:56;5.80;;;2.13;;
62588;SDS011;58504;48.770;9.148;2023-04-15T08:36:24;7.65;;;2.17;;
62588;SDS011;58504;48.770;9.148;2023-04-15T08:38:52;4.35;;;2.03;;
62588;SDS011;58504;48.770;9.148;2023-04-15T08:41:19;4.28;;;1.98;;
62588;SDS011;58504;48.770;9.148;2023-04-15T08:43:51;3.53;;;1.60;;
62588;SDS011;58504;48.770;9.148;2023-04-15T08:46:19;2.65;;;1.75;;
62588;SDS011;58504;48.770;9.148;2023-04-15T08:48:47;8.88;;;2.83;;
62588;SDS011;58504;48.770;9.148;2023-04-15T08:51:14;2.53;;;1.42;;
62588;SDS011;58504;48.770;9.148;2023-04-15T08:53:43;2.85;;;1.73;;
62588;SDS011;58504;48.770;9.148;2023-04-15T08:56:12;4.30;;;1.90;;
62588;SDS011;58504;48.770;9.148;2023-04-15T08:58:40;2.58;;;1.63;;
62588;SDS011;58504;48.770;9.148;2023-04-15T09:01:08;2.28;;;1.50;;
62588;SDS011;58504;48.770;9.148;2023-04-15T09:03:35;3.60;;;1.88;;
62588;SDS011;58504;48.770;9.148;2023-04-15T09:06:03;5.90;;;1.63;;
62588;SDS011;58504;48.770;9.148;2023-04-15T09:08:30;2.47;;;1.77;;
62588;SDS011;58504;48.770;9.148;2023-04-15T09:10:59;3.03;;;1.67;;
62588;SDS011;58504;48.770;9.148;2023-04-15T09:13:27;2.25;;;1.63;;
62588;SDS011;58504;48.770;9.148;2023-04-15T09:15:55;6.03;;;1.75;;
62588;SDS011;58504;48.770;9.148;2023-04-15T09:18:28;4.35;;;1.95;;
62588;SDS011;58504;48.770;9.148;2023-04-15T09:20:56;1.95;;;1.42;;
62588;SDS011;58504;48.770;9.148;2023-04-15T09:23:31;2.65;;;1.60;;
62588;SDS011;58504;48.770;9.148;2023-04-15T09:25:59;3.58;;;1.50;;
62588;SDS011;58504;48.770;9.148;2023-04-15T09:28:27;1.63;;;1.52;;
62588;SDS011;58504;48.770;9.148;2023-04-15T09:30:54;4.15;;;1.73;;
62588;SDS011;58504;48.770;9.148;2023-04-15T09:33:22;3.75;;;1.80;;
62588;SDS011;58504;48.770;9.148;2023-04-15T09:35:57;2.88;;;1.73;;
62588;SDS011;58504;48.770;9.148;2023-04-15T09:38:25;1.88;;;1.50;;
62588;SDS011;58504;48.770;9.148;2023-04-15T09:40:52;1.65;;;1.35;;
62588;SDS011;58504;48.770;9.148;2023-04-15T09:43:20;2.83;;;1.48;;
62588;SDS011;58504;48.770;9.148;2023-04-15T09:45:47;2.40;;;1.67;;
62588;SDS011;58504;48.770;9.148;2023-04-15T09:48:16;2.08;;;1.42;;
62588;SDS011;58504;48.770;9.148;2023-04-15T09:50:45;1.50;;;1.40;;
62588;SDS011;58504;48.770;9.148;2023-04-15T09:53:14;3.58;;;1.40;;
62588;SDS011;58504;48.770;9.148;2023-04-15T09:55:43;2.03;;;1.83;;
62588;SDS011;58504;48.770;9.148;2023-04-15T09:58:16;1.60;;;1.50;;
62588;SDS011;58504;48.770;9.148;2023-04-15T10:00:46;2.33;;;1.55;;
62588;SDS011;58504;48.770;9.148;2023-04-15T10:03:14;2.30;;;1.50;;
62588;SDS011;58504;48.770;9.148;2023-04-15T10:05:45;1.20;;;1.15;;
62588;SDS011;58504;48.770;9.148;2023-04-15T10:08:13;1.60;;;1.42;;
62588;SDS011;58504;48.770;9.148;2023-04-15T10:10:42;2.00;;;1.42;;
62588;SDS011;58504;48.770;9.148;2023-04-15T10:13:10;2.60;;;1.50;;
62588;SDS011;58504;48.770;9.148;2023-04-15T10:15:38;1.50;;;1.30;;
62588;SDS011;58504;48.770;9.148;2023-04-15T10:18:08;2.33;;;1.55;;
62588;SDS011;58504;48.770;9.148;2023-04-15T10:20:36;1.23;;;1.13;;
62588;SDS011;58504;48.770;9.148;2023-04-15T10:23:03;1.50;;;1.20;;
62588;SDS011;58504;48.770;9.148;2023-04-15T10:25:31;1.92;;;1.55;;
62588;SDS011;58504;48.770;9.148;2023-04-15T10:27:59;1.33;;;1.23;;
62588;SDS011;58504;48.770;9.148;2023-04-15T10:30:26;3.10;;;1.25;;
62588;SDS011;58504;48.770;9.148;2023-04-15T10:32:54;1.88;;;1.23;;
62588;SDS011;58504;48.770;9.148;2023-04-15T10:35:23;1.55;;;1.45;;
62588;SDS011;58504;48.770;9.148;2023-04-15T10:37:50;1.30;;;1.20;;
62588;SDS011;58504;48.770;9.148;2023-04-15T10:40:27;1.30;;;1.20;;
62588;SDS011;58504;48.770;9.148;2023-04-15T10:42:56;2.17;;;1.15;;
62588;SDS011;58504;48.770;9.148;2023-04-15T10:45:24;1.70;;;1.27;;
62588;SDS011;58504;48.770;9.148;2023-04-15T10:47:53;1.02;;;1.02;;
62588;SDS011;58504;48.770;9.148;2023-04-15T10:50:21;1.45;;;1.35;;
62588;SDS011;58504;48.770;9.148;2023-04-15T10:52:52;2.17;;;1.30;;
62588;SDS011;58504;48.770;9.148;2023-04-15T10:55:20;1.23;;;1.13;;
62588;SDS011;58504;48.770;9.148;2023-04-15T10:57:50;1.30;;;1.20;;
62588;SDS011;58504;48.770;9.148;2023-04-15T11:00:19;1.23;;;1.17;;
62588;SDS011;58504;48.770;9.148;2023-04-15T11:02:51;3.42;;;1.33;;
62588;SDS011;58504;48.770;9.148;2023-04-15T11:05:19;1.13;;;1.13;;
62588;SDS011;58504;48.770;9.148;2023-04-15T11:07:52;1.90;;;1.30;;
62588;SDS011;58504;48.770;9.148;2023-04-15T11:13:22;3.35;;;1.50;;
62588;SDS011;58504;48.770;9.148;2023-04-15T11:15:56;1.40;;;1.30;;
62588;SDS011;58504;48.770;9.148;2023-04-15T11:18:26;2.28;;;1.52;;
62588;SDS011;58504;48.770;9.148;2023-04-15T11:20:55;1.45;;;1.23;;
62588;SDS011;58504;48.770;9.148;2023-04-15T11:23:28;0.98;;;0.98;;
62588;SDS011;58504;48.770;9.148;2023-04-15T11:25:57;1.95;;;1.27;;
62588;SDS011;58504;48.770;9.148;2023-04-15T11:28:25;1.67;;;1.48;;
62588;SDS011;58504;48.770;9.148;2023-04-15T11:30:53;2.70;;;1.50;;
62588;SDS011;58504;48.770;9.148;2023-04-15T11:33:21;0.80;;;0.80;;
62588;SDS011;58504;48.770;9.148;2023-04-15T11:35:49;1.30;;;1.15;;
62588;SDS011;58504;48.770;9.148;2023-04-15T11:38:17;1.23;;;0.95;;
62588;SDS011;58504;48.770;9.148;2023-04-15T11:40:45;1.23;;;1.10;;
62588;SDS011;58504;48.770;9.148;2023-04-15T11:43:13;1.25;;;1.13;;
62588;SDS011;58504;48.770;9.148;2023-04-15T11:45:50;0.90;;;0.90;;
62588;SDS011;58504;48.770;9.148;2023-04-15T11:48:18;1.10;;;0.80;;
62588;SDS011;58504;48.770;9.148;2023-04-15T11:50:51;1.10;;;1.10;;
62588;SDS011;58504;48.770;9.148;2023-04-15T11:53:19;1.42;;;1.33;;
62588;SDS011;58504;48.770;9.148;2023-04-15T11:55:48;0.90;;;0.90;;
62588;SDS011;58504;48.770;9.148;2023-04-15T11:58:17;1.13;;;1.02;;
62588;SDS011;58504;48.770;9.148;2023-04-15T12:00:46;1.35;;;1.17;;
62588;SDS011;58504;48.770;9.148;2023-04-15T12:03:18;1.00;;;1.00;;
62588;SDS011;58504;48.770;9.148;2023-04-15T12:14:15;1.50;;;1.35;;
62588;SDS011;58504;48.770;9.148;2023-04-15T12:16:45;1.48;;;1.38;;
62588;SDS011;58504;48.770;9.148;2023-04-15T12:19:14;1.45;;;1.08;;
62588;SDS011;58504;48.770;9.148;2023-04-15T12:21:43;1.35;;;1.20;;
62588;SDS011;58504;48.770;9.148;2023-04-15T12:24:10;1.02;;;0.90;;
62588;SDS011;58504;48.770;9.148;2023-04-15T12:26:43;0.70;;;0.70;;
62588;SDS011;58504;48.770;9.148;2023-04-15T12:29:11;1.55;;;1.45;;
62588;SDS011;58504;48.770;9.148;2023-04-15T12:31:49;2.20;;;1.17;;
62588;SDS011;58504;48.770;9.148;2023-04-15T12:34:17;1.85;;;1.15;;
62588;SDS011;58504;48.770;9.148;2023-04-15T12:36:50;1.00;;;1.00;;
62588;SDS011;58504;48.770;9.148;2023-04-15T12:39:17;0.80;;;0.80;;
62588;SDS011;58504;48.770;9.148;2023-04-15T12:41:49;1.27;;;1.05;;
62588;SDS011;58504;48.770;9.148;2023-04-15T12:44:15;1.33;;;1.25;;
62588;SDS011;58504;48.770;9.148;2023-04-15T12:46:42;0.65;;;0.65;;
62588;SDS011;58504;48.770;9.148;2023-04-15T12:49:09;1.15;;;1.05;;
62588;SDS011;58504;48.770;9.148;2023-04-15T12:51:36;1.25;;;1.15;;
62588;SDS011;58504;48.770;9.148;2023-04-15T12:54:03;1.05;;;0.85;;
62588;SDS011;58504;48.770;9.148;2023-04-15T12:56:29;1.08;;;1.00;;
62588;SDS011;58504;48.770;9.148;2023-04-15T12:58:57;0.90;;;0.90;;
62588;SDS011;58504;48.770;9.148;2023-04-15T13:01:24;0.93;;;0.93;;
62588;SDS011;58504;48.770;9.148;2023-04-15T13:03:51;1.50;;;0.90;;
62588;SDS011;58504;48.770;9.148;2023-04-15T13:06:18;2.10;;;1.30;;
62588;SDS011;58504;48.770;9.148;2023-04-15T13:08:45;1.38;;;1.00;;
62588;SDS011;58504;48.770;9.148;2023-04-15T13:11:12;1.55;;;0.88;;
62588;SDS011;58504;48.770;9.148;2023-04-15T13:13:39;0.90;;;0.90;;
62588;SDS011;58504;48.770;9.148;2023-04-15T13:16:07;1.20;;;1.10;;
62588;SDS011;58504;48.770;9.148;2023-04-15T13:18:33;1.05;;;0.70;;
62588;SDS011;58504;48.770;9.148;2023-04-15T13:21:00;0.75;;;0.75;;
62588;SDS011;58504;48.770;9.148;2023-04-15T13:23:28;1.10;;;1.00;;
62588;SDS011;58504;48.770;9.148;2023-04-15T13:25:55;1.33;;;0.70;;
62588;SDS011;58504;48.770;9.148;2023-04-15T13:28:21;1.00;;;1.00;;
62588;SDS011;58504;48.770;9.148;2023-04-15T13:30:48;0.70;;;0.70;;
62588;SDS011;58504;48.770;9.148;2023-04-15T13:33:16;1.08;;;1.08;;
62588;SDS011;58504;48.770;9.148;2023-04-15T13:35:52;0.65;;;0.65;;
62588;SDS011;58504;48.770;9.148;2023-04-15T13:38:19;1.20;;;0.90;;
62588;SDS011;58504;48.770;9.148;2023-04-15T13:40:46;1.20;;;0.80;;
62588;SDS011;58504;48.770;9.148;2023-04-15T13:43:15;0.82;;;0.82;;
62588;SDS011;58504;48.770;9.148;2023-04-15T13:45:42;0.80;;;0.80;;
62588;SDS011;58504;48.770;9.148;2023-04-15T13:48:09;0.63;;;0.63;;
62588;SDS011;58504;48.770;9.148;2023-04-15T13:50:37;0.52;;;0.52;;
62588;SDS011;58504;48.770;9.148;2023-04-15T13:53:05;0.63;;;0.63;;
62588;SDS011;58504;48.770;9.148;2023-04-15T13:55:34;0.80;;;0.73;;
62588;SDS011;58504;48.770;9.148;2023-04-15T13:58:02;1.10;;;1.00;;
62588;SDS011;58504;48.770;9.148;2023-04-15T14:00:29;0.70;;;0.68;;
62588;SDS011;58504;48.770;9.148;2023-04-15T14:02:56;0.98;;;0.98;;
62588;SDS011;58504;48.770;9.148;2023-04-15T14:05:24;0.80;;;0.80;;
62588;SDS011;58504;48.770;9.148;2023-04-15T14:07:53;0.77;;;0.73;;
62588;SDS011;58504;48.770;9.148;2023-04-15T14:13:30;0.70;;;0.70;;
62588;SDS011;58504;48.770;9.148;2023-04-15T14:15:57;0.90;;;0.90;;
62588;SDS011;58504;48.770;9.148;2023-04-15T14:18:24;0.93;;;0.90;;
62588;SDS011;58504;48.770;9.148;2023-04-15T14:20:53;0.73;;;0.73;;
62588;SDS011;58504;48.770;9.148;2023-04-15T14:23:22;0.70;;;0.70;;
62588;SDS011;58504;48.770;9.148;2023-04-15T14:25:58;0.82;;;0.82;;
62588;SDS011;58504;48.770;9.148;2023-04-15T14:28:40;0.95;;;0.77;;
62588;SDS011;58504;48.770;9.148;2023-04-15T14:31:08;1.00;;;0.90;;
62588;SDS011;58504;48.770;9.148;2023-04-15T14:33:35;0.80;;;0.80;;
62588;SDS011;58504;48.770;9.148;2023-04-15T14:36:32;0.82;;;0.82;;
62588;SDS011;58504;48.770;9.148;2023-04-15T14:39:15;0.77;;;0.77;;
62588;SDS011;58504;48.770;9.148;2023-04-15T14:41:42;0.55;;;0.55;;
62588;SDS011;58504;48.770;9.148;2023-04-15T14:44:09;0.85;;;0.63;;
62588;SDS011;58504;48.770;9.148;2023-04-15T14:46:36;0.60;;;0.60;;
62588;SDS011;58504;48.770;9.148;2023-04-15T14:49:06;0.82;;;0.82;;
62588;SDS011;58504;48.770;9.148;2023-04-15T14:51:34;1.08;;;0.63;;
62588;SDS011;58504;48.770;9.148;2023-04-15T14:54:04;1.30;;;0.90;;
62588;SDS011;58504;48.770;9.148;2023-04-15T14:56:32;1.30;;;1.20;;
62588;SDS011;58504;48.770;9.148;2023-04-15T14:58:58;1.00;;;1.00;;
62588;SDS011;58504;48.770;9.148;2023-04-15T15:01:25;1.30;;;1.00;;
62588;SDS011;58504;48.770;9.148;2023-04-15T15:03:52;0.60;;;0.60;;
62588;SDS011;58504;48.770;9.148;2023-04-15T15:06:21;0.80;;;0.80;;
62588;SDS011;58504;48.770;9.148;2023-04-15T15:08:48;0.80;;;0.80;;